Time;durP1;ratioP1;P1;durP2;ratioP2;P2;SDS_P1;SDS_P2;PMS_P1;PMS_P2;Temp;Humidity;BMP_temperature;BMP_pressure;BME280_temperature;BME280_humidity;BME280_pressure;Samples;Min_cycle;Max_cycle;Signal;HPM_P1;HPM_P2
2024/02/27 00:01:29;;;;;;;19.40;11.73;;;;;;;3.25;100.00;68745.38;5068711;28;20515;-49
2024/02/27 00:04:01;;;;;;;22.45;13.00;;;;;;;3.22;100.00;68745.06;5068609;28;20137;-49
2024/02/27 00:06:28;;;;;;;21.23;12.30;;;;;;;3.16;100.00;68733.53;5071431;28;20050;-48
2024/02/27 00:08:56;;;;;;;21.95;13.25;;;;;;;3.14;100.00;68730.63;5067708;28;20446;-49
2024/02/27 00:11:24;;;;;;;20.80;12.57;;;;;;;3.11;100.00;68727.13;5067990;28;20545;-48
2024/02/27 00:13:54;;;;;;;22.13;13.00;;;;;;;3.07;100.00;68728.25;5066928;28;20056;-52
2024/02/27 00:16:23;;;;;;;21.73;13.07;;;;;;;3.03;100.00;68721.03;5072020;28;20123;-51
2024/02/27 00:18:51;;;;;;;25.38;13.75;;;;;;;3.01;100.00;68718.69;5075074;28;20464;-49
2024/02/27 00:21:19;;;;;;;24.38;13.68;;;;;;;3.03;100.00;68718.44;5075088;28;20076;-60
2024/02/27 00:23:47;;;;;;;24.60;13.75;;;;;;;2.99;100.00;68716.38;5075837;28;20155;-60
2024/02/27 00:26:16;;;;;;;24.02;13.90;;;;;;;2.96;100.00;68712.88;5075058;28;20045;-60
2024/02/27 00:28:44;;;;;;;23.65;13.38;;;;;;;2.92;100.00;68710.81;5075062;28;20048;-60
2024/02/27 00:31:13;;;;;;;23.60;13.60;;;;;;;2.92;100.00;68705.66;5074841;28;20048;-60
2024/02/27 00:33:42;;;;;;;23.50;13.70;;;;;;;2.88;100.00;68699.63;5073703;28;20057;-60
2024/02/27 00:36:10;;;;;;;24.05;14.10;;;;;;;2.90;100.00;68703.34;5074736;28;20032;-60
2024/02/27 00:38:38;;;;;;;21.80;13.45;;;;;;;2.91;100.00;68704.53;5073834;28;20052;-60
2024/02/27 00:41:07;;;;;;;21.83;12.82;;;;;;;2.92;100.00;68710.81;5074939;28;20522;-60
2024/02/27 00:43:35;;;;;;;22.90;13.50;;;;;;;2.88;100.00;68704.78;5074438;28;20053;-60
2024/02/27 00:46:04;;;;;;;24.83;12.82;;;;;;;2.84;100.00;68700.13;5074776;28;20048;-60
2024/02/27 00:48:34;;;;;;;23.05;13.02;;;;;;;2.84;100.00;68697.56;5074970;28;20079;-60
2024/02/27 00:51:02;;;;;;;21.13;12.98;;;;;;;2.82;100.00;68697.81;5074966;28;20052;-61
2024/02/27 00:53:31;;;;;;;21.23;11.93;;;;;;;2.80;100.00;68687.19;5074749;28;20033;-51
2024/02/27 00:55:59;;;;;;;24.17;12.75;;;;;;;2.84;100.00;68699.56;5071029;28;20056;-49
2024/02/27 00:58:27;;;;;;;21.98;12.82;;;;;;;2.81;100.00;68696.66;5071597;28;20048;-48
2024/02/27 01:00:55;;;;;;;21.60;12.40;;;;;;;2.85;100.00;68701.31;5074361;28;20503;-48
2024/02/27 01:03:24;;;;;;;22.55;13.57;;;;;;;2.85;100.00;68703.88;5074458;28;20495;-51
2024/02/27 01:05:53;;;;;;;24.25;13.73;;;;;;;2.78;100.00;68690.59;5072978;28;20055;-51
2024/02/27 01:08:22;;;;;;;22.60;13.25;;;;;;;2.79;100.00;68691.19;5069934;28;20098;-50
2024/02/27 01:10:52;;;;;;;24.25;13.43;;;;;;;2.75;100.00;68683.97;5073295;28;20059;-60
2024/02/27 01:13:20;;;;;;;21.40;12.50;;;;;;;2.76;100.00;68690.28;5074151;28;20045;-61
2024/02/27 01:15:49;;;;;;;22.25;12.48;;;;;;;2.75;100.00;68686.53;5074368;28;20041;-61
2024/02/27 01:18:17;;;;;;;23.45;14.15;;;;;;;2.74;100.00;68685.97;5074388;28;20110;-61
2024/02/27 01:20:45;;;;;;;24.45;13.75;;;;;;;2.76;100.00;68687.72;5073973;28;20044;-61
2024/02/27 01:23:15;;;;;;;22.38;13.40;;;;;;;2.74;100.00;68688.53;5073932;28;20380;-60
2024/02/27 01:25:43;;;;;;;21.27;12.57;;;;;;;2.71;100.00;68685.06;5073908;28;20052;-61
2024/02/27 01:28:11;;;;;;;24.00;14.05;;;;;;;2.77;100.00;68692.03;5073009;28;20503;-60
2024/02/27 01:30:39;;;;;;;22.38;13.00;;;;;;;2.75;100.00;68684.53;5073881;28;20095;-60
2024/02/27 01:33:08;;;;;;;24.58;13.98;;;;;;;2.76;100.00;68687.72;5072539;28;20048;-61
2024/02/27 01:35:36;;;;;;;23.02;13.15;;;;;;;2.70;100.00;68687.06;5073909;28;20040;-60
2024/02/27 01:38:04;;;;;;;22.08;13.82;;;;;;;2.69;100.00;68680.16;5074143;28;20040;-60
2024/02/27 01:40:34;;;;;;;22.80;13.45;;;;;;;2.68;100.00;68679.00;5073493;28;20349;-49
2024/02/27 01:43:02;;;;;;;22.77;13.10;;;;;;;2.65;100.00;68678.09;5069359;28;20126;-49
2024/02/27 01:45:31;;;;;;;23.73;13.77;;;;;;;2.67;100.00;68680.41;5070274;28;20068;-47
2024/02/27 01:47:59;;;;;;;23.58;13.23;;;;;;;2.69;100.00;68680.16;5069690;28;20120;-49
2024/02/27 01:50:27;;;;;;;20.67;11.68;;;;;;;2.62;100.00;68674.63;5070700;28;20809;-50
2024/02/27 01:52:59;;;;;;;23.85;13.95;;;;;;;2.57;100.00;68668.84;5071245;28;20098;-48
2024/02/27 01:55:27;;;;;;;25.98;14.95;;;;;;;2.54;100.00;68669.06;5073432;28;20457;-48
2024/02/27 01:57:57;;;;;;;22.55;13.55;;;;;;;2.54;100.00;68663.94;5072990;28;20055;-48
2024/02/27 02:00:25;;;;;;;24.67;14.32;;;;;;;2.51;100.00;68662.47;5070222;28;20048;-50
2024/02/27 02:02:54;;;;;;;25.77;14.30;;;;;;;2.48;100.00;68659.56;5069983;28;20048;-47
2024/02/27 02:05:23;;;;;;;27.65;14.80;;;;;;;2.47;100.00;68655.81;5073042;28;20544;-48
2024/02/27 02:07:52;;;;;;;25.02;13.68;;;;;;;2.44;100.00;68652.34;5070513;28;20522;-51
2024/02/27 02:10:20;;;;;;;25.00;13.88;;;;;;;2.42;100.00;68650.00;5070349;28;20040;-51
2024/02/27 02:12:48;;;;;;;26.67;14.63;;;;;;;2.39;100.00;68649.13;5068807;28;20179;-51
2024/02/27 02:15:18;;;;;;;24.45;14.20;;;;;;;2.38;100.00;68644.81;5069543;28;20049;-51
2024/02/27 02:17:46;;;;;;;24.60;14.35;;;;;;;2.37;100.00;68651.94;5069101;28;20052;-52
2024/02/27 02:20:19;;;;;;;27.20;15.48;;;;;;;2.38;100.00;68650.53;5069582;28;20510;-50
2024/02/27 02:22:47;;;;;;;25.13;14.35;;;;;;;2.32;100.00;68638.44;5072102;28;20115;-53
2024/02/27 02:25:18;;;;;;;25.17;12.95;;;;;;;2.33;100.00;68644.72;5069451;28;20056;-52
2024/02/27 02:27:46;;;;;;;23.83;13.55;;;;;;;2.29;100.00;68635.53;5070006;28;20136;-60
2024/02/27 02:30:14;;;;;;;25.83;14.88;;;;;;;2.28;100.00;68636.94;5072904;28;20045;-60
2024/02/27 02:32:49;;;;;;;24.45;14.65;;;;;;;2.26;100.00;68634.03;5073292;28;20075;-60
2024/02/27 02:35:19;;;;;;;24.23;14.07;;;;;;;2.26;100.00;68634.63;5073042;28;20044;-60
2024/02/27 02:37:49;;;;;;;26.05;14.02;;;;;;;2.24;100.00;68631.75;5073488;28;20471;-61
2024/02/27 02:40:19;;;;;;;23.75;13.95;;;;;;;2.18;100.00;68627.91;5073022;28;20043;-48
2024/02/27 02:42:48;;;;;;;22.98;13.68;;;;;;;2.16;100.00;68621.03;5069794;28;20419;-49
2024/02/27 02:45:17;;;;;;;26.38;13.82;;;;;;;2.16;100.00;68626.19;5070764;28;20049;-52
2024/02/27 02:47:45;;;;;;;24.42;13.70;;;;;;;2.07;100.00;68615.75;5071448;28;20052;-53
2024/02/27 02:50:13;;;;;;;24.95;12.95;;;;;;;2.08;100.00;68611.19;5069534;28;20032;-50
2024/02/27 02:52:44;;;;;;;22.80;14.02;;;;;;;2.05;100.00;68607.72;5068658;28;20045;-51
2024/02/27 02:55:16;;;;;;;23.02;12.55;;;;;;;1.97;100.00;68597.03;5068614;28;20127;-49
2024/02/27 02:57:44;;;;;;;25.80;13.73;;;;;;;1.99;100.00;68604.50;5070562;28;20492;-47
2024/02/27 03:00:13;;;;;;;23.05;12.77;;;;;;;1.96;100.00;68601.00;5069532;28;20395;-49
2024/02/27 03:02:41;;;;;;;23.95;13.13;;;;;;;1.91;100.00;68595.22;5067825;28;20525;-49
2024/02/27 03:05:12;;;;;;;24.63;13.40;;;;;;;1.93;100.00;68600.09;5069739;28;20403;-48
2024/02/27 03:07:41;;;;;;;23.23;13.15;;;;;;;1.92;100.00;68590.66;5068667;28;20091;-49
2024/02/27 03:10:11;;;;;;;24.85;13.23;;;;;;;1.87;100.00;68593.16;5069064;28;20044;-47
2024/02/27 03:12:43;;;;;;;24.33;12.70;;;;;;;1.95;100.00;68599.28;5071146;28;20572;-47
2024/02/27 03:15:12;;;;;;;21.92;12.05;;;;;;;1.91;100.00;68594.63;5071749;28;20406;-49
2024/02/27 03:17:40;;;;;;;25.92;13.73;;;;;;;1.92;100.00;68593.22;5071890;28;20055;-49
2024/02/27 03:20:10;;;;;;;23.25;12.70;;;;;;;1.90;100.00;68593.50;5072232;28;20051;-48
2024/02/27 03:22:38;;;;;;;22.58;13.15;;;;;;;1.88;100.00;68588.59;5072159;28;20050;-49
2024/02/27 03:25:07;;;;;;;22.85;12.38;;;;;;;1.91;100.00;68592.06;5072163;28;20368;-49
2024/02/27 03:27:38;;;;;;;23.88;13.32;;;;;;;1.92;100.00;68593.22;5072372;28;20053;-48
2024/02/27 03:30:10;;;;;;;23.77;12.98;;;;;;;1.88;100.00;68594.31;5067348;28;20383;-51
2024/02/27 03:32:39;;;;;;;26.88;12.70;;;;;;;1.88;100.00;68591.16;5068316;28;20086;-53
2024/02/27 03:35:09;;;;;;;26.02;13.35;;;;;;;1.86;100.00;68590.00;5067000;28;20064;-50
2024/02/27 03:37:38;;;;;;;23.98;12.07;;;;;;;1.91;100.00;68597.81;5071031;28;20040;-52
2024/02/27 03:40:09;;;;;;;26.13;12.70;;;;;;;1.89;100.00;68595.47;5071619;28;20041;-50
2024/02/27 03:42:38;;;;;;;23.95;13.20;;;;;;;1.85;100.00;68586.28;5067393;28;20048;-53
2024/02/27 03:45:09;;;;;;;24.88;13.15;;;;;;;1.83;100.00;68583.97;5066853;28;20095;-52
2024/02/27 03:47:37;;;;;;;23.33;12.65;;;;;;;1.80;100.00;68585.03;5068550;28;20476;-51
2024/02/27 03:50:06;;;;;;;25.13;14.10;;;;;;;1.78;100.00;68577.59;5068418;28;20037;-50
2024/02/27 03:52:34;;;;;;;26.05;12.40;;;;;;;1.79;100.00;68581.91;5069818;28;20060;-49
2024/02/27 03:55:03;;;;;;;24.48;12.90;;;;;;;1.79;100.00;68578.75;5074224;28;20052;-49
2024/02/27 03:57:31;;;;;;;24.65;12.98;;;;;;;1.79;100.00;68576.19;5070987;28;20153;-49
2024/02/27 04:00:02;;;;;;;25.00;13.13;;;;;;;1.73;100.00;68574.94;5071441;28;20416;-47
2024/02/27 04:02:31;;;;;;;25.10;13.43;;;;;;;1.73;100.00;68574.94;5072222;28;20132;-49
2024/02/27 04:04:59;;;;;;;22.63;11.38;;;;;;;1.67;100.00;68568.00;5071463;28;20495;-51
2024/02/27 04:07:27;;;;;;;23.95;13.25;;;;;;;1.66;100.00;68566.84;5071326;28;20056;-50
2024/02/27 04:09:55;;;;;;;24.50;12.68;;;;;;;1.68;100.00;68567.16;5073872;28;20114;-59
2024/02/27 04:12:25;;;;;;;23.90;13.27;;;;;;;1.63;100.00;68565.94;5074958;28;20060;-59
2024/02/27 04:14:53;;;;;;;26.75;13.65;;;;;;;1.60;100.00;68557.31;5074832;28;20503;-59
2024/02/27 04:17:22;;;;;;;24.80;13.30;;;;;;;1.55;100.00;68549.53;5074607;28;20060;-60
2024/02/27 04:19:51;;;;;;;26.23;12.45;;;;;;;1.55;100.00;68556.66;5075005;28;20048;-59
2024/02/27 04:22:19;;;;;;;29.58;14.07;;;;;;;1.54;100.00;68555.50;5075638;28;20036;-61
2024/02/27 04:24:47;;;;;;;24.95;13.02;;;;;;;1.47;100.00;68543.41;5072090;28;20036;-52
2024/02/27 04:27:15;;;;;;;26.65;14.02;;;;;;;1.47;100.00;68545.41;5070956;28;20056;-48
2024/02/27 04:29:43;;;;;;;25.05;13.35;;;;;;;1.44;100.00;68545.06;5070783;28;20052;-51
2024/02/27 04:32:13;;;;;;;26.65;14.00;;;;;;;1.44;100.00;68541.94;5074137;28;20049;-51
2024/02/27 04:34:43;;;;;;;27.55;14.27;;;;;;;1.40;100.00;68535.28;5070362;28;20452;-52
2024/02/27 04:37:14;;;;;;;26.75;13.77;;;;;;;1.38;100.00;68533.00;5071370;28;20064;-50
2024/02/27 04:39:45;;;;;;;27.63;14.75;;;;;;;1.36;100.00;68533.22;5071274;28;20113;-51
2024/02/27 04:42:13;;;;;;;26.90;13.85;;;;;;;1.36;100.00;68533.22;5073761;28;20059;-50
2024/02/27 04:44:41;;;;;;;25.27;13.38;;;;;;;1.34;100.00;68530.94;5071268;28;20040;-48
2024/02/27 04:47:09;;;;;;;28.45;15.55;;;;;;;1.37;100.00;68531.81;5070844;28;20068;-51
2024/02/27 04:49:37;;;;;;;24.35;13.48;;;;;;;1.37;100.00;68539.53;5071707;28;20102;-50
2024/02/27 04:52:07;;;;;;;30.88;14.95;;;;;;;1.33;100.00;68530.34;5072491;28;20041;-50
2024/02/27 04:54:36;;;;;;;26.02;13.52;;;;;;;1.34;100.00;68536.06;5072473;28;20098;-47
2024/02/27 04:57:04;;;;;;;30.60;14.98;;;;;;;1.33;100.00;68530.34;5070563;28;20091;-51
2024/02/27 04:59:32;;;;;;;28.05;15.35;;;;;;;1.35;100.00;68527.53;5070239;28;20044;-49
2024/02/27 05:02:01;;;;;;;25.90;14.32;;;;;;;1.35;100.00;68530.09;5070142;28;20442;-52
2024/02/27 05:04:29;;;;;;;27.23;14.15;;;;;;;1.35;100.00;68532.09;5070042;28;20040;-50
2024/02/27 05:06:59;;;;;;;27.85;14.77;;;;;;;1.33;100.00;68527.19;5070258;28;20101;-48
2024/02/27 05:09:29;;;;;;;27.85;14.63;;;;;;;1.30;100.00;68526.88;5071162;28;20093;-51
2024/02/27 05:11:57;;;;;;;27.15;14.57;;;;;;;1.29;100.00;68522.56;5073740;28;20055;-49
2024/02/27 05:14:25;;;;;;;26.67;15.02;;;;;;;1.32;100.00;68531.16;5073169;28;20040;-50
2024/02/27 05:16:54;;;;;;;28.35;14.38;;;;;;;1.28;100.00;68524.56;5070570;28;20584;-49
2024/02/27 05:19:22;;;;;;;29.27;14.52;;;;;;;1.27;100.00;68523.41;5072779;28;20112;-48
2024/02/27 05:21:50;;;;;;;26.48;13.95;;;;;;;1.27;100.00;68522.81;5071377;28;20504;-48
2024/02/27 05:24:18;;;;;;;26.80;14.40;;;;;;;1.27;100.00;68522.81;5070322;28;20043;-48
2024/02/27 05:26:48;;;;;;;27.42;14.25;;;;;;;1.27;100.00;68522.81;5073885;28;20067;-48
2024/02/27 05:29:16;;;;;;;30.75;15.27;;;;;;;1.24;100.00;68521.91;5072007;28;20131;-51
2024/02/27 05:31:45;;;;;;;29.00;14.93;;;;;;;1.18;100.00;68513.53;5069908;28;20124;-51
2024/02/27 05:34:13;;;;;;;27.45;13.35;;;;;;;1.16;100.00;68513.81;5070147;28;20361;-49
2024/02/27 05:36:41;;;;;;;28.83;15.20;;;;;;;1.15;100.00;68512.66;5070361;28;20057;-52
2024/02/27 05:39:09;;;;;;;28.70;14.40;;;;;;;1.13;100.00;68504.59;5069595;28;20087;-52
2024/02/27 05:41:38;;;;;;;27.48;13.50;;;;;;;1.22;100.00;68514.47;5069003;28;20166;-51
2024/02/27 05:44:07;;;;;;;25.95;14.82;;;;;;;1.20;100.00;68512.72;5068745;28;20045;-51
2024/02/27 05:46:36;;;;;;;27.30;14.38;;;;;;;1.14;100.00;68511.47;5070374;28;20102;-48
2024/02/27 05:49:04;;;;;;;32.40;15.98;;;;;;;1.14;100.00;68510.91;5072022;28;20139;-50
2024/02/27 05:51:33;;;;;;;27.67;14.07;;;;;;;1.14;100.00;68508.34;5072015;28;20499;-48
2024/02/27 05:54:02;;;;;;;25.48;13.65;;;;;;;1.13;100.00;68504.59;5073063;28;20048;-50
2024/02/27 05:56:30;;;;;;;26.20;14.50;;;;;;;1.17;100.00;68506.66;5072250;28;20059;-49
2024/02/27 05:59:01;;;;;;;26.80;14.23;;;;;;;1.14;100.00;68505.78;5073381;28;20079;-51
2024/02/27 06:01:31;;;;;;;28.88;14.48;;;;;;;1.14;100.00;68510.91;5073037;28;20136;-47
2024/02/27 06:03:59;;;;;;;25.80;13.90;;;;;;;1.13;100.00;68502.03;5068337;28;20048;-48
2024/02/27 06:06:27;;;;;;;25.20;14.30;;;;;;;1.13;100.00;68509.75;5070073;28;20044;-51
2024/02/27 06:08:55;;;;;;;26.33;13.90;;;;;;;1.14;100.00;68506.34;5068895;28;20582;-49
2024/02/27 06:11:24;;;;;;;24.23;13.57;;;;;;;1.11;100.00;68505.44;5070173;28;20044;-48
2024/02/27 06:13:52;;;;;;;25.67;13.85;;;;;;;1.13;100.00;68505.19;5067256;28;20052;-50
2024/02/27 06:16:20;;;;;;;26.90;14.35;;;;;;;1.10;100.00;68503.72;5071944;28;20139;-49
2024/02/27 06:18:51;;;;;;;28.25;14.18;;;;;;;1.04;100.00;68499.91;5072275;28;20060;-49
2024/02/27 06:24:06;;;;;;;28.30;13.50;;;;;;;1.03;100.00;68498.19;5070719;28;20488;-46
2024/02/27 06:26:34;;;;;;;28.73;13.90;;;;;;;1.04;100.00;68494.78;5070144;28;20048;-49
2024/02/27 06:29:03;;;;;;;28.35;14.98;;;;;;;1.03;100.00;68496.19;5067934;28;20087;-50
2024/02/27 06:31:33;;;;;;;26.85;14.40;;;;;;;1.00;100.00;68495.28;5071332;28;20067;-52
2024/02/27 06:34:03;;;;;;;27.25;13.75;;;;;;;0.98;100.00;68485.84;5069000;28;20492;-48
2024/02/27 06:36:31;;;;;;;27.95;14.27;;;;;;;1.03;100.00;68495.59;5068923;28;20041;-51
2024/02/27 06:39:00;;;;;;;26.73;13.82;;;;;;;1.01;100.00;68494.44;5068574;28;20050;-48
2024/02/27 06:41:28;;;;;;;28.42;14.50;;;;;;;0.98;100.00;68493.56;5068948;28;20106;-50
2024/02/27 06:43:57;;;;;;;25.10;14.02;;;;;;;1.01;100.00;68499.59;5071546;28;20044;-51
2024/02/27 06:46:25;;;;;;;28.30;13.70;;;;;;;1.00;100.00;68495.84;5067769;28;20102;-53
2024/02/27 06:48:53;;;;;;;28.40;14.77;;;;;;;1.01;100.00;68491.31;5069030;28;20492;-53
2024/02/27 06:51:41;;;;;;;26.58;13.93;;;;;;;1.06;100.00;68496.50;5069568;28;20102;-54
2024/02/27 06:54:09;;;;;;;27.30;14.15;;;;;;;1.05;100.00;68500.47;5071368;28;20431;-53
2024/02/27 06:56:40;;;;;;;26.92;13.32;;;;;;;1.08;100.00;68503.94;5068725;28;20040;-52
2024/02/27 06:59:09;;;;;;;29.90;14.35;;;;;;;1.13;100.00;68507.78;5067541;28;20047;-58
2024/02/27 07:01:40;;;;;;;29.38;14.15;;;;;;;1.12;100.00;68508.59;5071215;28;20467;-60
2024/02/27 07:04:08;;;;;;;26.00;13.43;;;;;;;1.11;100.00;68505.44;5071294;28;20063;-60
2024/02/27 07:06:36;;;;;;;28.25;14.18;;;;;;;1.11;100.00;68507.44;5071465;28;20562;-59
2024/02/27 07:09:08;;;;;;;34.08;14.68;;;;;;;1.15;100.00;68512.66;5070650;28;20037;-60
2024/02/27 07:11:37;;;;;;;26.80;13.50;;;;;;;1.15;100.00;68512.06;5071442;28;20055;-60
2024/02/27 07:14:05;;;;;;;34.53;15.60;;;;;;;1.14;100.00;68508.34;5070453;28;20056;-60
2024/02/27 07:16:33;;;;;;;28.73;14.02;;;;;;;1.17;100.00;68509.25;5071884;28;20143;-60
2024/02/27 07:19:01;;;;;;;31.75;14.90;;;;;;;1.14;100.00;68508.91;5071965;28;20053;-49
2024/02/27 07:21:30;;;;;;;24.10;13.40;;;;;;;1.15;100.00;68512.66;5068846;28;20114;-50
2024/02/27 07:23:58;;;;;;;26.67;13.82;;;;;;;1.13;100.00;68507.19;5067845;28;20078;-49
2024/02/27 07:26:27;;;;;;;28.42;14.15;;;;;;;1.15;100.00;68509.50;5069619;28;20045;-53
2024/02/27 07:28:55;;;;;;;27.00;14.05;;;;;;;1.16;100.00;68511.25;5073546;28;20071;-50
2024/02/27 07:31:24;;;;;;;29.40;13.63;;;;;;;1.22;100.00;68514.47;5074897;28;20045;-59
2024/02/27 07:33:52;;;;;;;27.60;13.38;;;;;;;1.29;100.00;68528.28;5074797;28;20487;-60
2024/02/27 07:36:20;;;;;;;24.45;12.65;;;;;;;1.32;100.00;68529.19;5074979;28;20052;-60
2024/02/27 07:38:48;;;;;;;24.45;12.48;;;;;;;1.42;100.00;68539.59;5073310;28;20571;-60
2024/02/27 07:41:16;;;;;;;25.00;13.07;;;;;;;1.43;100.00;68538.78;5074805;28;20048;-59
2024/02/27 07:43:46;;;;;;;27.67;13.95;;;;;;;1.45;100.00;68546.22;5073869;28;20483;-60
2024/02/27 07:46:14;;;;;;;27.15;14.35;;;;;;;1.47;100.00;68546.00;5074361;28;20052;-60
2024/02/27 07:48:44;;;;;;;25.75;12.65;;;;;;;1.50;100.00;68551.44;5074366;28;20052;-60
2024/02/27 07:51:26;;;;;;;24.83;12.65;;;;;;;1.49;100.00;68547.72;5075079;28;20519;-60
2024/02/27 07:53:58;;;;;;;25.48;12.57;;;;;;;1.64;100.00;68564.53;5075918;28;20106;-60
2024/02/27 07:56:31;;;;;;;22.55;11.98;;;;;;;1.58;100.00;68557.56;5075453;28;20048;-60
2024/02/27 07:59:01;;;;;;;23.05;12.20;;;;;;;1.59;100.00;68554.16;5073349;28;20123;-59
2024/02/27 08:01:29;;;;;;;24.90;12.88;;;;;;;1.63;100.00;68565.94;5075143;28;20091;-59
2024/02/27 08:03:58;;;;;;;21.30;11.73;;;;;;;1.70;100.00;68574.03;5074703;28;20483;-60
2024/02/27 08:06:27;;;;;;;22.63;12.02;;;;;;;1.78;100.00;68575.00;5074398;28;20047;-59
2024/02/27 08:08:58;;;;;;;23.17;12.23;;;;;;;1.78;100.00;68580.72;5073822;28;20048;-59
2024/02/27 08:11:26;;;;;;;22.77;12.18;;;;;;;1.79;100.00;68579.31;5073946;28;20134;-59
2024/02/27 08:13:55;;;;;;;19.92;11.43;;;;;;;1.74;100.00;68573.53;5071600;28;20037;-53
2024/02/27 08:16:24;;;;;;;22.90;12.13;;;;;;;1.64;100.00;68564.53;5071541;28;20052;-49
2024/02/27 08:18:52;;;;;;;21.77;11.60;;;;;;;1.67;100.00;68566.00;5071763;28;20113;-51
2024/02/27 08:21:21;;;;;;;20.65;11.90;;;;;;;1.69;100.00;68572.88;5072491;28;20052;-51
2024/02/27 08:23:49;;;;;;;21.67;11.52;;;;;;;1.71;100.00;68572.63;5072482;28;20097;-60
2024/02/27 08:26:17;;;;;;;21.88;12.00;;;;;;;1.71;100.00;68570.06;5073523;28;20123;-59
2024/02/27 08:28:47;;;;;;;19.45;11.50;;;;;;;1.75;100.00;68572.13;5073466;28;20471;-60
2024/02/27 08:31:16;;;;;;;21.60;11.80;;;;;;;1.77;100.00;68576.44;5075551;28;20195;-60
2024/02/27 08:33:45;;;;;;;21.45;11.75;;;;;;;1.74;100.00;68576.09;5074255;28;20539;-61
2024/02/27 08:36:13;;;;;;;21.23;11.85;;;;;;;1.79;100.00;68579.31;5073718;28;20127;-59
2024/02/27 08:38:43;;;;;;;23.00;12.68;;;;;;;1.80;100.00;68582.47;5073275;28;20514;-60
2024/02/27 08:41:11;;;;;;;25.65;11.90;;;;;;;1.84;100.00;68585.13;5074245;28;20535;-60
2024/02/27 08:43:42;;;;;;;21.27;12.60;;;;;;;1.91;100.00;68595.22;5073706;28;20037;-59
2024/02/27 08:46:16;;;;;;;22.95;12.38;;;;;;;2.02;100.00;68604.81;5073712;28;20048;-60
2024/02/27 08:48:46;;;;;;;24.70;12.75;;;;;;;2.03;100.00;68605.97;5073413;28;20055;-60
2024/02/27 08:51:14;;;;;;;26.80;13.40;;;;;;;2.13;100.00;68620.13;5073228;28;20063;-60
2024/02/27 08:53:43;;;;;;;22.40;11.70;;;;;;;2.25;100.00;68630.31;5073307;28;20047;-60
2024/02/27 08:56:11;;;;;;;23.73;13.48;;;;;;;2.32;100.00;68638.44;5073288;28;20121;-60
2024/02/27 08:58:39;;;;;;;23.20;12.75;;;;;;;2.34;100.00;68638.16;5072735;28;20052;-60
2024/02/27 09:01:07;;;;;;;23.17;11.85;;;;;;;2.40;100.00;68645.13;5073021;28;20060;-60
2024/02/27 09:03:35;;;;;;;21.33;12.20;;;;;;;2.46;100.00;68657.22;5073666;28;20098;-60
2024/02/27 09:06:09;;;;;;;20.88;12.65;;;;;;;2.49;100.00;68660.69;5073467;28;20052;-60
2024/02/27 09:08:37;;;;;;;21.88;12.32;;;;;;;2.49;100.00;68652.41;5072021;28;20068;-61
2024/02/27 09:11:05;;;;;;;19.27;10.82;;;;;;;2.54;100.00;68666.50;5071985;28;20446;-60
2024/02/27 09:13:33;;;;;;;20.75;11.77;;;;;;;2.55;100.00;68669.66;5074566;28;20045;-60
2024/02/27 09:16:01;;;;;;;23.85;13.02;;;;;;;2.63;100.00;68676.38;5072236;28;20419;-60
2024/02/27 09:18:32;;;;;;;19.48;11.70;;;;;;;2.62;100.00;68666.88;5072179;28;20060;-60
2024/02/27 09:21:01;;;;;;;23.30;12.63;;;;;;;2.67;100.00;68683.00;5072309;28;20080;-60
2024/02/27 09:23:33;;;;;;;27.30;13.32;;;;;;;2.72;100.00;68683.06;5073879;28;20052;-60
2024/02/27 09:26:01;;;;;;;23.10;13.02;;;;;;;2.76;100.00;68687.72;5073587;28;20041;-59
2024/02/27 09:28:29;;;;;;;20.60;11.73;;;;;;;2.79;100.00;68691.19;5072855;28;20135;-59
2024/02/27 09:31:02;;;;;;;22.92;12.85;;;;;;;2.81;100.00;68696.66;5074414;28;20036;-60
2024/02/27 09:33:31;;;;;;;22.20;12.15;;;;;;;2.87;100.00;68701.03;5074528;28;20060;-60
2024/02/27 09:35:59;;;;;;;21.17;12.15;;;;;;;2.92;100.00;68703.09;5074330;28;20121;-61
2024/02/27 09:38:28;;;;;;;21.58;12.95;;;;;;;2.91;100.00;68704.53;5074440;28;20479;-61
2024/02/27 09:41:01;;;;;;;22.55;12.52;;;;;;;2.91;100.00;68707.09;5074277;28;20102;-61
2024/02/27 09:43:31;;;;;;;21.85;12.35;;;;;;;2.88;100.00;68701.63;5072888;28;20127;-60
2024/02/27 09:46:05;;;;;;;20.05;11.43;;;;;;;2.95;100.00;68711.75;5073094;28;20121;-60
2024/02/27 09:48:43;;;;;;;25.60;13.88;;;;;;;2.96;100.00;68710.31;5072908;28;20052;-60
2024/02/27 09:51:13;;;;;;;19.88;11.95;;;;;;;3.00;100.00;68717.53;5072887;28;20053;-59
2024/02/27 09:53:44;;;;;;;22.15;13.18;;;;;;;3.08;100.00;68729.41;5072770;28;20117;-60
2024/02/27 09:56:15;;;;;;;22.67;12.98;;;;;;;3.12;100.00;68734.03;5073235;28;20067;-60
2024/02/27 09:58:44;;;;;;;20.75;12.07;;;;;;;3.22;100.00;68740.47;5073861;28;20059;-60
2024/02/27 10:01:13;;;;;;;21.25;12.52;;;;;;;3.19;100.00;68738.97;5073701;28;20468;-53
2024/02/27 10:03:45;;;;;;;22.30;12.18;;;;;;;3.28;100.00;68748.84;5069727;28;20040;-52
2024/02/27 10:06:15;;;;;;;24.67;13.20;;;;;;;3.28;100.00;68746.84;5069701;28;20144;-52
2024/02/27 10:08:48;;;;;;;20.98;12.35;;;;;;;3.33;100.00;68752.66;5069046;28;20048;-51
2024/02/27 10:11:19;;;;;;;21.83;14.20;;;;;;;3.37;100.00;68757.28;5071048;28;20067;-49
2024/02/27 10:13:47;;;;;;;18.33;11.75;;;;;;;3.48;100.00;68774.63;5068482;28;20052;-50
2024/02/27 10:16:21;;;;;;;19.80;12.07;;;;;;;3.53;100.00;68775.28;5069184;28;20117;-48
2024/02/27 10:18:50;;;;;;;20.70;12.68;;;;;;;3.63;100.00;68786.31;5067937;28;20060;-47
2024/02/27 10:21:21;;;;;;;21.38;12.93;;;;;;;3.59;100.00;68781.66;5068735;28;20049;-49
2024/02/27 10:23:50;;;;;;;20.67;11.70;;;;;;;3.63;100.00;68788.88;5068799;28;20476;-47
2024/02/27 10:26:19;;;;;;;23.05;13.80;;;;;;;3.62;100.00;68787.16;5069171;28;20052;-47
2024/02/27 10:28:49;;;;;;;21.15;13.63;;;;;;;3.70;100.00;68794.41;5071785;28;20506;-48
2024/02/27 10:31:18;;;;;;;21.48;12.45;;;;;;;3.78;100.00;68800.56;5069288;28;20435;-48
2024/02/27 10:33:47;;;;;;;21.27;12.93;;;;;;;3.80;100.00;68805.44;5070545;28;20048;-47
2024/02/27 10:36:15;;;;;;;18.83;11.88;;;;;;;3.84;100.00;68810.09;5070778;28;20482;-47
2024/02/27 10:38:44;;;;;;;18.80;12.02;;;;;;;3.95;100.00;68824.84;5068502;28;20058;-48
2024/02/27 10:41:13;;;;;;;20.25;12.25;;;;;;;4.06;100.00;68831.88;5071725;28;20117;-47
2024/02/27 10:43:43;;;;;;;21.52;14.02;;;;;;;4.19;100.00;68849.56;5068390;28;20503;-49
2024/02/27 10:46:11;;;;;;;19.88;12.95;;;;;;;4.13;100.00;68845.19;5070009;28;20040;-51
2024/02/27 10:48:42;;;;;;;18.65;11.70;;;;;;;4.07;100.00;68836.19;5070635;28;20539;-48
2024/02/27 10:51:13;;;;;;;20.15;12.13;;;;;;;4.10;100.00;68841.69;5068183;28;20395;-51
2024/02/27 10:53:43;;;;;;;18.90;12.10;;;;;;;4.12;100.00;68844.03;5071455;28;20142;-50
2024/02/27 10:56:11;;;;;;;20.00;13.07;;;;;;;4.23;100.00;68854.22;5072590;28;20044;-51
2024/02/27 10:58:40;;;;;;;21.15;12.93;;;;;;;4.25;100.00;68855.94;5070102;28;20051;-49
2024/02/27 11:01:10;;;;;;;21.65;13.57;;;;;;;4.35;100.00;68872.13;5068302;28;20135;-50
2024/02/27 11:03:41;;;;;;;19.10;12.35;;;;;;;4.33;100.00;68864.66;5069243;28;20052;-51
2024/02/27 11:06:14;;;;;;;19.38;12.82;;;;;;;4.31;100.00;68862.31;5068755;28;20395;-49
2024/02/27 11:08:46;;;;;;;18.30;12.23;;;;;;;4.35;100.00;68866.97;5068536;28;20440;-48
2024/02/27 11:11:15;;;;;;;20.92;12.77;;;;;;;4.35;100.00;68866.97;5068768;28;20088;-49
2024/02/27 11:13:46;;;;;;;19.45;12.90;;;;;;;4.37;100.00;68869.31;5069923;28;20048;-49
2024/02/27 11:16:19;;;;;;;18.98;12.10;;;;;;;4.44;100.00;68876.84;5068579;28;20060;-52
2024/02/27 11:18:49;;;;;;;;;;;;;;;4.55;100.00;68894.78;5071532;28;20773;-49
2024/02/27 11:21:18;;;;;;;19.02;11.95;;;;;;;4.66;100.00;68899.22;5071458;28;19920;-50
2024/02/27 11:23:47;;;;;;;19.27;11.88;;;;;;;4.68;100.00;68906.75;5068464;28;20399;-49
2024/02/27 11:26:16;;;;;;;18.63;12.23;;;;;;;4.62;100.00;68899.75;5068570;28;20569;-50
2024/02/27 11:28:45;;;;;;;18.00;11.93;;;;;;;4.67;100.00;68906.16;5068015;28;20044;-60